sensor_id;sensor_type;location;lat;lon;timestamp;pressure;altitude;pressure_sealevel;temperature;humidity
44144;BME280;43510;51.920;4.492;2023-02-11T00:13:24;66958.88;;;9.94;97.97
44144;BME280;43510;51.920;4.492;2023-02-11T00:15:49;66953.53;;;9.84;97.64
44144;BME280;43510;51.920;4.492;2023-02-11T00:18:15;66959.59;;;9.97;97.70
44144;BME280;43510;51.920;4.492;2023-02-11T00:20:42;66961.50;;;9.94;97.49
44144;BME280;43510;51.920;4.492;2023-02-11T00:28:18;66966.53;;;9.98;96.92
44144;BME280;43510;51.920;4.492;2023-02-11T00:30:43;66952.19;;;9.88;97.04
44144;BME280;43510;51.920;4.492;2023-02-11T00:33:09;66962.78;;;9.97;96.31
44144;BME280;43510;51.920;4.492;2023-02-11T00:35:36;66973.00;;;10.09;96.25
44144;BME280;43510;51.920;4.492;2023-02-11T00:38:02;66966.13;;;10.00;96.01
44144;BME280;43510;51.920;4.492;2023-02-11T00:40:28;66964.47;;;9.99;96.03
44144;BME280;43510;51.920;4.492;2023-02-11T00:42:53;66976.72;;;10.10;95.74
44144;BME280;43510;51.920;4.492;2023-02-11T00:45:19;66979.91;;;10.10;95.82
44144;BME280;43510;51.920;4.492;2023-02-11T00:47:45;66981.19;;;10.14;95.56
44144;BME280;43510;51.920;4.492;2023-02-11T00:50:10;66981.19;;;10.14;95.59
44144;BME280;43510;51.920;4.492;2023-02-11T00:52:36;66975.78;;;10.11;95.41
44144;BME280;43510;51.920;4.492;2023-02-11T00:55:01;66980.63;;;10.13;95.33
44144;BME280;43510;51.920;4.492;2023-02-11T00:57:26;66974.47;;;10.08;95.55
44144;BME280;43510;51.920;4.492;2023-02-11T00:59:52;66974.88;;;10.06;95.49
44144;BME280;43510;51.920;4.492;2023-02-11T01:02:17;66954.41;;;9.90;95.24
44144;BME280;43510;51.920;4.492;2023-02-11T01:04:42;66975.03;;;10.08;95.38
44144;BME280;43510;51.920;4.492;2023-02-11T01:07:08;66978.22;;;10.09;95.56
44144;BME280;43510;51.920;4.492;2023-02-11T01:09:33;66972.28;;;10.06;96.11
44144;BME280;43510;51.920;4.492;2023-02-11T01:12:01;66976.16;;;10.09;95.69
44144;BME280;43510;51.920;4.492;2023-02-11T01:14:27;66979.16;;;10.07;96.27
44144;BME280;43510;51.920;4.492;2023-02-11T01:16:52;66972.81;;;10.06;96.09
44144;BME280;43510;51.920;4.492;2023-02-11T01:19:19;66977.28;;;10.10;96.26
44144;BME280;43510;51.920;4.492;2023-02-11T01:21:44;66971.72;;;10.05;95.99
44144;BME280;43510;51.920;4.492;2023-02-11T01:26:44;66976.16;;;10.09;96.27
44144;BME280;43510;51.920;4.492;2023-02-11T01:31:45;66966.69;;;10.01;96.69
44144;BME280;43510;51.920;4.492;2023-02-11T01:34:10;66962.78;;;9.97;96.75
44144;BME280;43510;51.920;4.492;2023-02-11T01:36:36;66959.81;;;9.92;97.09
44144;BME280;43510;51.920;4.492;2023-02-11T01:39:02;66963.56;;;9.93;97.06
44144;BME280;43510;51.920;4.492;2023-02-11T01:41:28;66959.81;;;9.92;97.57
44144;BME280;43510;51.920;4.492;2023-02-11T01:43:53;66953.31;;;9.89;97.60
44144;BME280;43510;51.920;4.492;2023-02-11T01:46:28;66953.31;;;9.89;98.16
44144;BME280;43510;51.920;4.492;2023-02-11T01:51:48;66938.81;;;9.75;98.82
44144;BME280;43510;51.920;4.492;2023-02-11T01:54:19;66931.56;;;9.69;99.09
44144;BME280;43510;51.920;4.492;2023-02-11T01:57:10;66926.56;;;9.64;99.83
44144;BME280;43510;51.920;4.492;2023-02-11T02:02:16;66920.25;;;9.56;100.00
44144;BME280;43510;51.920;4.492;2023-02-11T02:10:03;66905.19;;;9.42;100.00
44144;BME280;43510;51.920;4.492;2023-02-11T02:12:29;66904.81;;;9.45;100.00
44144;BME280;43510;51.920;4.492;2023-02-11T02:29:05;66876.56;;;9.21;100.00
44144;BME280;43510;51.920;4.492;2023-02-11T02:34:40;66873.06;;;9.16;100.00
44144;BME280;43510;51.920;4.492;2023-02-11T02:37:17;66875.13;;;9.15;100.00
44144;BME280;43510;51.920;4.492;2023-02-11T02:39:47;66864.72;;;9.08;100.00
44144;BME280;43510;51.920;4.492;2023-02-11T02:42:15;66861.75;;;9.03;100.00
44144;BME280;43510;51.920;4.492;2023-02-11T02:44:47;66861.38;;;9.05;100.00
44144;BME280;43510;51.920;4.492;2023-02-11T02:47:15;66853.00;;;8.97;100.00
44144;BME280;43510;51.920;4.492;2023-02-11T02:49:40;66852.84;;;8.95;100.00
44144;BME280;43510;51.920;4.492;2023-02-11T02:57:50;66856.75;;;8.98;100.00
44144;BME280;43510;51.920;4.492;2023-02-11T03:05:53;66845.22;;;8.90;100.00
44144;BME280;43510;51.920;4.492;2023-02-11T03:08:33;66836.47;;;8.85;100.00
44144;BME280;43510;51.920;4.492;2023-02-11T03:11:02;66835.19;;;8.81;100.00
44144;BME280;43510;51.920;4.492;2023-02-11T03:13:31;66831.84;;;8.78;100.00
44144;BME280;43510;51.920;4.492;2023-02-11T03:16:01;66821.06;;;8.73;100.00
44144;BME280;43510;51.920;4.492;2023-02-11T03:18:29;66827.22;;;8.72;100.00
44144;BME280;43510;51.920;4.492;2023-02-11T03:20:55;66831.69;;;8.76;100.00
44144;BME280;43510;51.920;4.492;2023-02-11T03:23:59;66831.28;;;8.78;100.00
44144;BME280;43510;51.920;4.492;2023-02-11T03:26:39;66832.78;;;8.77;100.00
44144;BME280;43510;51.920;4.492;2023-02-11T03:29:58;66828.50;;;8.75;100.00
44144;BME280;43510;51.920;4.492;2023-02-11T03:32:28;66829.44;;;8.74;100.00
44144;BME280;43510;51.920;4.492;2023-02-11T03:35:11;66823.88;;;8.69;100.00
44144;BME280;43510;51.920;4.492;2023-02-11T03:37:48;66831.13;;;8.75;100.00
44144;BME280;43510;51.920;4.492;2023-02-11T03:40:19;66822.38;;;8.70;100.00
44144;BME280;43510;51.920;4.492;2023-02-11T03:42:49;66827.41;;;8.74;100.00
44144;BME280;43510;51.920;4.492;2023-02-11T03:45:18;66825.16;;;8.72;100.00
44144;BME280;43510;51.920;4.492;2023-02-11T03:47:55;66824.44;;;8.69;100.00
44144;BME280;43510;51.920;4.492;2023-02-11T03:50:25;66819.97;;;8.65;100.00
44144;BME280;43510;51.920;4.492;2023-02-11T03:52:53;66816.97;;;8.67;100.00
44144;BME280;43510;51.920;4.492;2023-02-11T03:55:22;66810.13;;;8.58;100.00
44144;BME280;43510;51.920;4.492;2023-02-11T03:57:50;66807.00;;;8.51;100.00
44144;BME280;43510;51.920;4.492;2023-02-11T04:00:16;66811.25;;;8.59;100.00
44144;BME280;43510;51.920;4.492;2023-02-11T04:02:42;66814.03;;;8.62;100.00
44144;BME280;43510;51.920;4.492;2023-02-11T04:05:11;66817.91;;;8.66;100.00
44144;BME280;43510;51.920;4.492;2023-02-11T04:07:37;66813.47;;;8.62;100.00
44144;BME280;43510;51.920;4.492;2023-02-11T04:10:05;66831.50;;;8.73;100.00
44144;BME280;43510;51.920;4.492;2023-02-11T04:12:30;66826.84;;;8.74;100.00
44144;BME280;43510;51.920;4.492;2023-02-11T04:14:55;66824.59;;;8.72;100.00
44144;BME280;43510;51.920;4.492;2023-02-11T04:17:21;66823.47;;;8.71;100.00
44144;BME280;43510;51.920;4.492;2023-02-11T04:19:46;66832.06;;;8.74;100.00
44144;BME280;43510;51.920;4.492;2023-02-11T04:22:12;66823.47;;;8.71;100.00
44144;BME280;43510;51.920;4.492;2023-02-11T04:24:37;66831.69;;;8.76;100.00
44144;BME280;43510;51.920;4.492;2023-02-11T04:27:03;66831.13;;;8.75;100.00
44144;BME280;43510;51.920;4.492;2023-02-11T04:29:28;66829.06;;;8.76;100.00
44144;BME280;43510;51.920;4.492;2023-02-11T04:31:56;66826.84;;;8.74;100.00
44144;BME280;43510;51.920;4.492;2023-02-11T04:34:22;66833.53;;;8.80;100.00
44144;BME280;43510;51.920;4.492;2023-02-11T04:36:51;66831.28;;;8.78;100.00
44144;BME280;43510;51.920;4.492;2023-02-11T04:39:17;66827.94;;;8.75;100.00
44144;BME280;43510;51.920;4.492;2023-02-11T04:41:46;66837.25;;;8.81;100.00
44144;BME280;43510;51.920;4.492;2023-02-11T04:44:11;66833.53;;;8.80;100.00
44144;BME280;43510;51.920;4.492;2023-02-11T04:46:38;66846.00;;;8.86;100.00
44144;BME280;43510;51.920;4.492;2023-02-11T04:49:04;66848.38;;;8.91;100.00
44144;BME280;43510;51.920;4.492;2023-02-11T04:51:30;66842.41;;;8.88;100.00
44144;BME280;43510;51.920;4.492;2023-02-11T04:53:55;66845.78;;;8.91;100.00
44144;BME280;43510;51.920;4.492;2023-02-11T04:56:21;66850.78;;;8.95;100.00
44144;BME280;43510;51.920;4.492;2023-02-11T04:58:46;66845.78;;;8.91;100.00
44144;BME280;43510;51.920;4.492;2023-02-11T05:01:14;66848.00;;;8.93;100.00
44144;BME280;43510;51.920;4.492;2023-02-11T05:03:41;66846.16;;;8.89;100.00
44144;BME280;43510;51.920;4.492;2023-02-11T05:06:06;66847.44;;;8.92;100.00
44144;BME280;43510;51.920;4.492;2023-02-11T05:08:38;66851.34;;;8.96;100.00
44144;BME280;43510;51.920;4.492;2023-02-11T05:11:04;66848.94;;;8.91;100.00
44144;BME280;43510;51.920;4.492;2023-02-11T05:13:30;66848.94;;;8.91;100.00
44144;BME280;43510;51.920;4.492;2023-02-11T05:15:55;66848.16;;;8.95;100.00
44144;BME280;43510;51.920;4.492;2023-02-11T05:18:21;66847.25;;;8.90;100.00
44144;BME280;43510;51.920;4.492;2023-02-11T05:20:46;66858.41;;;9.00;100.00
44144;BME280;43510;51.920;4.492;2023-02-11T05:23:12;66865.81;;;9.09;100.00
44144;BME280;43510;51.920;4.492;2023-02-11T05:25:38;66861.94;;;9.06;100.00
44144;BME280;43510;51.920;4.492;2023-02-11T05:28:03;66865.66;;;9.07;100.00
44144;BME280;43510;51.920;4.492;2023-02-11T05:30:29;66866.94;;;9.10;100.00
44144;BME280;43510;51.920;4.492;2023-02-11T05:32:55;66865.25;;;9.09;100.00
44144;BME280;43510;51.920;4.492;2023-02-11T05:35:20;66872.31;;;9.13;100.00
44144;BME280;43510;51.920;4.492;2023-02-11T05:37:46;66876.25;;;9.16;100.00
44144;BME280;43510;51.920;4.492;2023-02-11T05:40:11;66870.84;;;9.14;100.00
44144;BME280;43510;51.920;4.492;2023-02-11T05:42:37;66875.84;;;9.18;100.00
44144;BME280;43510;51.920;4.492;2023-02-11T05:45:03;66878.44;;;9.18;100.00
44144;BME280;43510;51.920;4.492;2023-02-11T05:47:28;66875.28;;;9.18;100.00
44144;BME280;43510;51.920;4.492;2023-02-11T05:49:55;66872.84;;;9.20;100.00
44144;BME280;43510;51.920;4.492;2023-02-11T05:52:20;66883.88;;;9.21;100.00
44144;BME280;43510;51.920;4.492;2023-02-11T05:54:46;66876.81;;;9.17;100.00
44144;BME280;43510;51.920;4.492;2023-02-11T05:57:15;66880.69;;;9.20;100.00
44144;BME280;43510;51.920;4.492;2023-02-11T05:59:40;66876.97;;;9.19;100.00
44144;BME280;43510;51.920;4.492;2023-02-11T06:02:06;66882.19;;;9.19;100.00
44144;BME280;43510;51.920;4.492;2023-02-11T06:04:35;66879.19;;;9.21;100.00
44144;BME280;43510;51.920;4.492;2023-02-11T06:07:02;66879.19;;;9.21;100.00
44144;BME280;43510;51.920;4.492;2023-02-11T06:09:27;66874.75;;;9.17;100.00
44144;BME280;43510;51.920;4.492;2023-02-11T06:11:53;66882.94;;;9.22;100.00
44144;BME280;43510;51.920;4.492;2023-02-11T06:14:18;66879.56;;;9.19;100.00
44144;BME280;43510;51.920;4.492;2023-02-11T06:16:44;66878.06;;;9.20;100.00
44144;BME280;43510;51.920;4.492;2023-02-11T06:19:10;66883.09;;;9.25;100.00
44144;BME280;43510;51.920;4.492;2023-02-11T06:21:36;66881.44;;;9.23;100.00
44144;BME280;43510;51.920;4.492;2023-02-11T06:24:01;66884.03;;;9.23;100.00
44144;BME280;43510;51.920;4.492;2023-02-11T06:26:26;66881.81;;;9.21;100.00
44144;BME280;43510;51.920;4.492;2023-02-11T06:28:52;66888.50;;;9.27;100.00
44144;BME280;43510;51.920;4.492;2023-02-11T06:31:17;66887.94;;;9.27;100.00
44144;BME280;43510;51.920;4.492;2023-02-11T06:33:44;66880.31;;;9.22;100.00
44144;BME280;43510;51.920;4.492;2023-02-11T06:36:15;66890.88;;;9.32;100.00
44144;BME280;43510;51.920;4.492;2023-02-11T06:38:44;66886.44;;;9.28;100.00
44144;BME280;43510;51.920;4.492;2023-02-11T06:41:14;66886.25;;;9.25;100.00
44144;BME280;43510;51.920;4.492;2023-02-11T06:43:41;66872.31;;;9.13;100.00
44144;BME280;43510;51.920;4.492;2023-02-11T06:46:08;66882.53;;;9.24;100.00
44144;BME280;43510;51.920;4.492;2023-02-11T06:48:36;66879.00;;;9.19;100.00
44144;BME280;43510;51.920;4.492;2023-02-11T06:51:06;66874.75;;;9.17;100.00
44144;BME280;43510;51.920;4.492;2023-02-11T06:53:35;66876.97;;;9.19;100.00
44144;BME280;43510;51.920;4.492;2023-02-11T06:56:06;66879.75;;;9.22;100.00
44144;BME280;43510;51.920;4.492;2023-02-11T06:58:32;66874.00;;;9.14;100.00
44144;BME280;43510;51.920;4.492;2023-02-11T07:00:58;66871.38;;;9.14;100.00
44144;BME280;43510;51.920;4.492;2023-02-11T07:03:23;66870.28;;;9.13;100.00
44144;BME280;43510;51.920;4.492;2023-02-11T07:05:49;66873.81;;;9.12;100.00
44144;BME280;43510;51.920;4.492;2023-02-11T07:08:14;66868.59;;;9.12;100.00
44144;BME280;43510;51.920;4.492;2023-02-11T07:10:40;66862.47;;;9.06;100.00
44144;BME280;43510;51.920;4.492;2023-02-11T07:13:08;66867.09;;;9.13;100.00
44144;BME280;43510;51.920;4.492;2023-02-11T07:15:35;66870.66;;;9.11;100.00
44144;BME280;43510;51.920;4.492;2023-02-11T07:18:01;66862.47;;;9.06;100.00
44144;BME280;43510;51.920;4.492;2023-02-11T07:20:27;66866.38;;;9.10;100.00
44144;BME280;43510;51.920;4.492;2023-02-11T07:22:52;66871.38;;;9.14;100.00
44144;BME280;43510;51.920;4.492;2023-02-11T07:25:17;66871.38;;;9.14;100.00
44144;BME280;43510;51.920;4.492;2023-02-11T07:27:44;66860.03;;;9.09;100.00
44144;BME280;43510;51.920;4.492;2023-02-11T07:30:17;66863.03;;;9.07;100.00
44144;BME280;43510;51.920;4.492;2023-02-11T07:32:42;66882.53;;;9.24;100.00
44144;BME280;43510;51.920;4.492;2023-02-11T07:35:10;66882.53;;;9.24;100.00
44144;BME280;43510;51.920;4.492;2023-02-11T07:37:35;66885.13;;;9.24;100.00
44144;BME280;43510;51.920;4.492;2023-02-11T07:40:01;66888.66;;;9.30;100.00
44144;BME280;43510;51.920;4.492;2023-02-11T07:42:26;66886.81;;;9.26;100.00
44144;BME280;43510;51.920;4.492;2023-02-11T07:44:52;66890.16;;;9.29;100.00
44144;BME280;43510;51.920;4.492;2023-02-11T07:47:17;66888.66;;;9.30;100.00
44144;BME280;43510;51.920;4.492;2023-02-11T07:49:44;66894.06;;;9.32;100.00
44144;BME280;43510;51.920;4.492;2023-02-11T07:52:09;66899.25;;;9.39;100.00
44144;BME280;43510;51.920;4.492;2023-02-11T07:54:35;66910.22;;;9.47;100.00
44144;BME280;43510;51.920;4.492;2023-02-11T07:57:00;66919.69;;;9.56;100.00
44144;BME280;43510;51.920;4.492;2023-02-11T07:59:33;66919.88;;;9.58;100.00
44144;BME280;43510;51.920;4.492;2023-02-11T08:01:58;66921.31;;;9.64;100.00
44144;BME280;43510;51.920;4.492;2023-02-11T08:04:23;66938.63;;;9.73;100.00
44144;BME280;43510;51.920;4.492;2023-02-11T08:06:59;66945.09;;;9.83;100.00
44144;BME280;43510;51.920;4.492;2023-02-11T08:09:25;66949.41;;;9.85;100.00
44144;BME280;43510;51.920;4.492;2023-02-11T08:11:50;66957.78;;;9.93;100.00
44144;BME280;43510;51.920;4.492;2023-02-11T08:14:15;66966.13;;;10.00;100.00
44144;BME280;43510;51.920;4.492;2023-02-11T08:16:41;66976.00;;;10.07;100.00
44144;BME280;43510;51.920;4.492;2023-02-11T08:19:10;66980.63;;;10.13;100.00
44144;BME280;43510;51.920;4.492;2023-02-11T08:21:37;66978.41;;;10.11;100.00
44144;BME280;43510;51.920;4.492;2023-02-11T08:24:05;66990.13;;;10.22;100.00
44144;BME280;43510;51.920;4.492;2023-02-11T08:26:33;66989.56;;;10.21;100.00
44144;BME280;43510;51.920;4.492;2023-02-11T08:29:05;66994.03;;;10.26;100.00
44144;BME280;43510;51.920;4.492;2023-02-11T08:31:33;67006.31;;;10.37;100.00
44144;BME280;43510;51.920;4.492;2023-02-11T08:33:59;67008.53;;;10.39;100.00
44144;BME280;43510;51.920;4.492;2023-02-11T08:36:36;67006.69;;;10.35;100.00
44144;BME280;43510;51.920;4.492;2023-02-11T08:39:05;67006.84;;;10.37;100.00
44144;BME280;43510;51.920;4.492;2023-02-11T08:41:31;67005.19;;;10.36;100.00
44144;BME280;43510;51.920;4.492;2023-02-11T08:44:04;67016.72;;;10.44;100.00
44144;BME280;43510;51.920;4.492;2023-02-11T08:46:29;67013.72;;;10.46;100.00
44144;BME280;43510;51.920;4.492;2023-02-11T08:48:56;67003.28;;;10.39;100.00
44144;BME280;43510;51.920;4.492;2023-02-11T08:51:24;67011.47;;;10.44;100.00
44144;BME280;43510;51.920;4.492;2023-02-11T08:53:51;67020.06;;;10.47;100.00
44144;BME280;43510;51.920;4.492;2023-02-11T08:56:18;67018.56;;;10.48;100.00
44144;BME280;43510;51.920;4.492;2023-02-11T08:58:44;67025.25;;;10.54;100.00
44144;BME280;43510;51.920;4.492;2023-02-11T09:01:23;67035.28;;;10.63;100.00
44144;BME280;43510;51.920;4.492;2023-02-11T09:03:51;67034.59;;;10.60;100.00
44144;BME280;43510;51.920;4.492;2023-02-11T09:06:18;67040.88;;;10.68;100.00
44144;BME280;43510;51.920;4.492;2023-02-11T09:08:47;67053.53;;;10.77;100.00
44144;BME280;43510;51.920;4.492;2023-02-11T09:14:26;67060.41;;;10.86;100.00
44144;BME280;43510;51.920;4.492;2023-02-11T09:16:51;67055.75;;;10.79;100.00
44144;BME280;43510;51.920;4.492;2023-02-11T09:19:19;67063.19;;;10.88;100.00
44144;BME280;43510;51.920;4.492;2023-02-11T09:22:00;67049.06;;;10.73;100.00
44144;BME280;43510;51.920;4.492;2023-02-11T09:24:26;67064.31;;;10.89;100.00
44144;BME280;43510;51.920;4.492;2023-02-11T09:26:51;67080.47;;;11.04;100.00
44144;BME280;43510;51.920;4.492;2023-02-11T09:29:16;67080.47;;;11.04;100.00
44144;BME280;43510;51.920;4.492;2023-02-11T09:31:57;67073.22;;;10.97;100.00
44144;BME280;43510;51.920;4.492;2023-02-11T09:34:24;67095.56;;;11.18;100.00
44144;BME280;43510;51.920;4.492;2023-02-11T09:36:49;67108.22;;;11.27;100.00
44144;BME280;43510;51.920;4.492;2023-02-11T09:39:16;67103.94;;;11.25;100.00
44144;BME280;43510;51.920;4.492;2023-02-11T09:42:25;67126.25;;;11.45;100.00
44144;BME280;43510;51.920;4.492;2023-02-11T09:44:59;67125.13;;;11.44;100.00
44144;BME280;43510;51.920;4.492;2023-02-11T09:47:31;67140.75;;;11.59;100.00
44144;BME280;43510;51.920;4.492;2023-02-11T09:50:04;67144.66;;;11.62;100.00
44144;BME280;43510;51.920;4.492;2023-02-11T09:55:32;67154.72;;;11.71;100.00
44144;BME280;43510;51.920;4.492;2023-02-11T09:58:06;67157.00;;;11.73;100.00
44144;BME280;43510;51.920;4.492;2023-02-11T10:00:36;67165.34;;;11.81;100.00
44144;BME280;43510;51.920;4.492;2023-02-11T10:06:40;67179.31;;;11.94;100.00
44144;BME280;43510;51.920;4.492;2023-02-11T10:09:42;67189.38;;;12.03;100.00
44144;BME280;43510;51.920;4.492;2023-02-11T10:15:17;67207.63;;;12.17;100.00
44144;BME280;43510;51.920;4.492;2023-02-11T10:23:35;67268.28;;;12.77;98.90
44144;BME280;43510;51.920;4.492;2023-02-11T10:26:14;67281.75;;;12.82;98.83
44144;BME280;43510;51.920;4.492;2023-02-11T10:28:44;67272.22;;;12.80;98.22
44144;BME280;43510;51.920;4.492;2023-02-11T10:31:12;67275.00;;;12.83;97.36
44144;BME280;43510;51.920;4.492;2023-02-11T10:33:58;67278.75;;;12.84;97.98
44144;BME280;43510;51.920;4.492;2023-02-11T10:36:33;67275.94;;;12.81;97.83
44144;BME280;43510;51.920;4.492;2023-02-11T10:39:20;67274.44;;;12.82;97.98
44144;BME280;43510;51.920;4.492;2023-02-11T10:41:51;67254.16;;;12.61;98.05
44144;BME280;43510;51.920;4.492;2023-02-11T10:44:56;67259.75;;;12.66;98.11
44144;BME280;43510;51.920;4.492;2023-02-11T10:47:23;67241.88;;;12.50;97.76
44144;BME280;43510;51.920;4.492;2023-02-11T10:49:50;67244.66;;;12.53;97.71
44144;BME280;43510;51.920;4.492;2023-02-11T10:57:37;67250.25;;;12.58;98.02
44144;BME280;43510;51.920;4.492;2023-02-11T11:03:00;67255.28;;;12.62;98.11
44144;BME280;43510;51.920;4.492;2023-02-11T11:05:33;67265.34;;;12.72;97.70
44144;BME280;43510;51.920;4.492;2023-02-11T11:08:02;67266.78;;;12.78;97.59
44144;BME280;43510;51.920;4.492;2023-02-11T11:10:35;67280.59;;;12.88;97.11
44144;BME280;43510;51.920;4.492;2023-02-11T11:13:01;67274.59;;;12.85;96.50
44144;BME280;43510;51.920;4.492;2023-02-11T11:15:29;67289.22;;;12.91;96.69
44144;BME280;43510;51.920;4.492;2023-02-11T11:18:16;67306.53;;;13.06;96.53
44144;BME280;43510;51.920;4.492;2023-02-11T11:21:00;67311.00;;;13.11;96.21
44144;BME280;43510;51.920;4.492;2023-02-11T11:23:29;67295.34;;;12.96;95.67
44144;BME280;43510;51.920;4.492;2023-02-11T11:26:05;67311.19;;;13.13;95.57
44144;BME280;43510;51.920;4.492;2023-02-11T11:28:36;67304.06;;;13.09;95.19
44144;BME280;43510;51.920;4.492;2023-02-11T11:31:03;67344.72;;;13.43;94.14
44144;BME280;43510;51.920;4.492;2023-02-11T11:33:34;67306.69;;;13.09;94.42
44144;BME280;43510;51.920;4.492;2023-02-11T11:36:18;67312.69;;;13.12;94.97
44144;BME280;43510;51.920;4.492;2023-02-11T11:38:49;67310.63;;;13.13;94.93
44144;BME280;43510;51.920;4.492;2023-02-11T11:41:19;67311.19;;;13.13;94.53
44144;BME280;43510;51.920;4.492;2023-02-11T11:46:41;67315.25;;;13.19;93.75
44144;BME280;43510;51.920;4.492;2023-02-11T11:49:28;67334.69;;;13.34;93.72
44144;BME280;43510;51.920;4.492;2023-02-11T11:54:27;67327.97;;;13.28;92.91
44144;BME280;43510;51.920;4.492;2023-02-11T11:57:01;67326.84;;;13.27;93.05
44144;BME280;43510;51.920;4.492;2023-02-11T11:59:32;67335.22;;;13.35;92.37
44144;BME280;43510;51.920;4.492;2023-02-11T12:02:16;67339.72;;;13.39;92.60
44144;BME280;43510;51.920;4.492;2023-02-11T12:05:02;67342.09;;;13.43;92.38
44144;BME280;43510;51.920;4.492;2023-02-11T12:08:06;67338.41;;;13.35;91.67
44144;BME280;43510;51.920;4.492;2023-02-11T12:21:11;67314.56;;;13.16;91.56
44144;BME280;43510;51.920;4.492;2023-02-11T12:26:47;67320.69;;;13.22;91.08
44144;BME280;43510;51.920;4.492;2023-02-11T12:42:51;67322.34;;;13.23;90.56
44144;BME280;43510;51.920;4.492;2023-02-11T12:45:59;67329.06;;;13.29;90.32
44144;BME280;43510;51.920;4.492;2023-02-11T12:49:27;67326.44;;;13.29;89.99
44144;BME280;43510;51.920;4.492;2023-02-11T12:57:02;67347.13;;;13.48;88.50
44144;BME280;43510;51.920;4.492;2023-02-11T13:05:32;67362.63;;;13.60;87.40
44144;BME280;43510;51.920;4.492;2023-02-11T13:08:04;67361.09;;;13.61;87.32
44144;BME280;43510;51.920;4.492;2023-02-11T13:10:37;67362.22;;;13.62;87.07
44144;BME280;43510;51.920;4.492;2023-02-11T13:13:13;67378.13;;;13.71;87.24
44144;BME280;43510;51.920;4.492;2023-02-11T13:15:43;67378.69;;;13.72;86.23
44144;BME280;43510;51.920;4.492;2023-02-11T13:26:18;67379.41;;;13.75;84.98
44144;BME280;43510;51.920;4.492;2023-02-11T13:31:37;67384.03;;;13.81;84.26
44144;BME280;43510;51.920;4.492;2023-02-11T13:34:22;67397.84;;;13.92;84.45
44144;BME280;43510;51.920;4.492;2023-02-11T13:36:57;67393.16;;;13.92;83.90
44144;BME280;43510;51.920;4.492;2023-02-11T13:39:23;67385.56;;;13.80;83.56
44144;BME280;43510;51.920;4.492;2023-02-11T13:41:49;67384.03;;;13.81;83.22
44144;BME280;43510;51.920;4.492;2023-02-11T13:44:21;67384.44;;;13.79;83.33
44144;BME280;43510;51.920;4.492;2023-02-11T13:47:24;67424.72;;;14.16;81.63
44144;BME280;43510;51.920;4.492;2023-02-11T13:49:48;67400.81;;;13.97;81.88
44144;BME280;43510;51.920;4.492;2023-02-11T13:52:31;67408.88;;;13.99;82.11
44144;BME280;43510;51.920;4.492;2023-02-11T13:55:00;67437.41;;;14.25;80.56
44144;BME280;43510;51.920;4.492;2023-02-11T13:57:33;67406.66;;;13.97;80.92
44144;BME280;43510;51.920;4.492;2023-02-11T14:03:20;67397.31;;;13.91;80.62
44144;BME280;43510;51.920;4.492;2023-02-11T14:09:07;67394.34;;;13.86;79.75
44144;BME280;43510;51.920;4.492;2023-02-11T14:19:42;67374.91;;;13.71;78.55
44144;BME280;43510;51.920;4.492;2023-02-11T14:23:15;67369.31;;;13.66;78.01
44144;BME280;43510;51.920;4.492;2023-02-11T14:25:35;67384.44;;;13.79;77.64
44144;BME280;43510;51.920;4.492;2023-02-11T14:28:16;67374.91;;;13.71;77.81
44144;BME280;43510;51.920;4.492;2023-02-11T14:33:34;67379.97;;;13.75;76.97
44144;BME280;43510;51.920;4.492;2023-02-11T14:36:28;67386.50;;;13.79;77.23
44144;BME280;43510;51.920;4.492;2023-02-11T14:41:41;67366.94;;;13.61;76.96
44144;BME280;43510;51.920;4.492;2023-02-11T14:46:49;67369.31;;;13.66;76.96
44144;BME280;43510;51.920;4.492;2023-02-11T14:49:35;67374.91;;;13.71;76.78
44144;BME280;43510;51.920;4.492;2023-02-11T14:52:12;67362.22;;;13.62;76.62
44144;BME280;43510;51.920;4.492;2023-02-11T14:54:42;67359.28;;;13.57;76.53
44144;BME280;43510;51.920;4.492;2023-02-11T14:57:17;67358.72;;;13.56;77.02
44144;BME280;43510;51.920;4.492;2023-02-11T15:02:27;67355.19;;;13.51;77.05
44144;BME280;43510;51.920;4.492;2023-02-11T15:04:53;67344.34;;;13.45;76.81
44144;BME280;43510;51.920;4.492;2023-02-11T15:07:19;67341.38;;;13.40;76.96
44144;BME280;43510;51.920;4.492;2023-02-11T15:09:48;67334.81;;;13.37;77.17
44144;BME280;43510;51.920;4.492;2023-02-11T15:12:21;67328.50;;;13.29;77.63
44144;BME280;43510;51.920;4.492;2023-02-11T15:14:54;67329.63;;;13.30;77.19
44144;BME280;43510;51.920;4.492;2023-02-11T15:17:23;67316.38;;;13.20;77.08
44144;BME280;43510;51.920;4.492;2023-02-11T15:19:52;67315.66;;;13.17;77.35
44144;BME280;43510;51.920;4.492;2023-02-11T15:22:23;67316.78;;;13.18;77.54
44144;BME280;43510;51.920;4.492;2023-02-11T15:27:23;67311.56;;;13.11;77.58
44144;BME280;43510;51.920;4.492;2023-02-11T15:29:50;67314.94;;;13.14;77.43
44144;BME280;43510;51.920;4.492;2023-02-11T15:32:19;67308.91;;;13.11;77.69
44144;BME280;43510;51.920;4.492;2023-02-11T15:34:47;67297.19;;;13.00;77.52
44144;BME280;43510;51.920;4.492;2023-02-11T15:37:26;67301.13;;;13.04;77.78
44144;BME280;43510;51.920;4.492;2023-02-11T15:39:54;67294.97;;;12.98;77.84
44144;BME280;43510;51.920;4.492;2023-02-11T15:42:31;67294.22;;;12.95;77.88
44144;BME280;43510;51.920;4.492;2023-02-11T15:45:30;67288.81;;;12.93;78.70
44144;BME280;43510;51.920;4.492;2023-02-11T15:48:16;67274.06;;;12.84;79.12
44144;BME280;43510;51.920;4.492;2023-02-11T15:50:53;67274.66;;;12.78;79.51
44144;BME280;43510;51.920;4.492;2023-02-11T15:56:07;67268.69;;;12.75;80.01
44144;BME280;43510;51.920;4.492;2023-02-11T15:58:38;67267.00;;;12.73;80.24
44144;BME280;43510;51.920;4.492;2023-02-11T16:01:08;67261.25;;;12.65;80.40
44144;BME280;43510;51.920;4.492;2023-02-11T16:03:38;67253.03;;;12.60;80.52
44144;BME280;43510;51.920;4.492;2023-02-11T16:06:21;67259.75;;;12.66;80.96
44144;BME280;43510;51.920;4.492;2023-02-11T16:09:03;67253.44;;;12.58;81.37
44144;BME280;43510;51.920;4.492;2023-02-11T16:11:30;67273.16;;;12.79;80.36